»·PEaware :: AAL1646 KPHX-KLAS

AAL1646 :: KPHX-KLAS

FLIGHT INFORMATION

Flight Status: Arrived
Operator:
American Airlines
More flights by this operator :: More flights under this callsign
Pilot: Michael C. (16705)
Aircraft: BOEING 737-800
(B738)
More flights by this aircraft type
Origin: KPHX Phoenix Sky Harbor Intl
United States
Destination: KLAS McCarran Intl
United States
More flights between these airports :: More routes between these airports
Route: +MAYSA5 SISIE IGM TYSSN5
File this flight plan on PilotEdge
Remarks: PBN / A1B1C1D1L1O1S1 NAV / RNVD1E2A1 DOF / 170920 REG / N838NN EET / KZLA0022 RVR / 200 PER / C
Altitude:
(Current/Filed)
340ft
Speed:
(Current/Filed)
464kts
Departed: 21-Sep-17 08:56 AM
Arrived: 21-Sep-17 09:38 AM
Distance/Time
Traveled:
221nm/0:42
Distance/Time
To Go:
Arrived

Flight Plot

Page will automatically refresh every two minutes.

Flight plan parsing failed; only flown route is shown


Map Options




Map Legend


Flown Route
Filed Route
Departure Airport
Arrival Airport
Navaid (VOR, NDB)
Fix

Horizontal Profiles

Position Reports

Time Latitude Longitude Heading Altitude Ground
Speed
21-Sep-17 08:36 33.438304 -111.999561 182 1143ft 0kts
21-Sep-17 08:37 33.438304 -111.999561 182 1143ft 0kts
21-Sep-17 08:38 33.438304 -111.999561 182 1143ft 0kts
21-Sep-17 08:39 33.438304 -111.999561 182 1143ft 0kts
21-Sep-17 08:40 33.438304 -111.999561 182 1143ft 0kts
21-Sep-17 08:41 33.438304 -111.999561 182 1143ft 0kts
21-Sep-17 08:42 33.438304 -111.999561 182 1143ft 0kts
21-Sep-17 08:43 33.438304 -111.999561 182 1143ft 0kts
21-Sep-17 08:44 33.438304 -111.999561 182 1143ft 0kts
21-Sep-17 08:45 33.438304 -111.999561 182 1143ft 0kts
21-Sep-17 08:46 33.438304 -111.999561 182 1143ft 0kts
21-Sep-17 08:47 33.438304 -111.999561 182 1143ft 0kts
21-Sep-17 08:48 33.438304 -111.999561 182 1143ft 0kts
21-Sep-17 08:49 33.438514 -111.999551 182 1143ft 2kts
21-Sep-17 08:50 33.438778 -111.999539 182 1143ft 0kts
21-Sep-17 08:51 33.438778 -111.999539 182 1143ft 0kts
21-Sep-17 08:52 33.438777 -111.999539 182 1142ft 0kts
21-Sep-17 08:53 33.439588 -112.001163 313 1143ft 11kts
21-Sep-17 08:54 33.439677 -112.005619 268 1143ft 12kts
21-Sep-17 08:55 33.439674 -112.010923 268 1143ft 19kts
21-Sep-17 08:56 33.439698 -112.018272 268 1143ft 23kts
21-Sep-17 08:57 33.439711 -112.025392 270 1143ft 16kts
21-Sep-17 08:58 33.439972 -112.028361 336 1143ft 0kts
21-Sep-17 08:59 33.439975 -112.028363 336 1143ft 0kts
21-Sep-17 09:00 33.440815 -112.017750 89 1143ft 126kts
21-Sep-17 09:01 33.439523 -111.961348 95 3619ft 189kts
21-Sep-17 09:02 33.437043 -111.884751 77 5642ft 255kts
21-Sep-17 09:03 33.502251 -111.840689 16 8250ft 305kts
21-Sep-17 09:04 33.587137 -111.813232 9 10932ft 330kts
21-Sep-17 09:05 33.680465 -111.840310 323 12158ft 384kts
21-Sep-17 09:06 33.766161 -111.920287 304 14251ft 395kts
21-Sep-17 09:07 33.837365 -112.023453 301 16500ft 403kts
21-Sep-17 09:08 33.905021 -112.132195 300 18493ft 410kts
21-Sep-17 09:09 33.973186 -112.244402 300 20153ft 421kts
21-Sep-17 09:10 34.048848 -112.355004 312 21675ft 438kts
21-Sep-17 09:11 34.143414 -112.450982 314 22982ft 449kts
21-Sep-17 09:12 34.240346 -112.548713 314 24207ft 456kts
21-Sep-17 09:13 34.338451 -112.647597 314 25354ft 462kts
21-Sep-17 09:14 34.437458 -112.747842 313 26525ft 464kts
21-Sep-17 09:15 34.535494 -112.847778 313 28225ft 455kts
21-Sep-17 09:16 34.629585 -112.947806 311 29923ft 446kts
21-Sep-17 09:17 34.720668 -113.047797 310 31619ft 438kts
21-Sep-17 09:18 34.810454 -113.145878 309 33321ft 427kts
21-Sep-17 09:19 34.898653 -113.242957 309 33967ft 432kts
21-Sep-17 09:20 34.983538 -113.344637 298 33953ft 420kts
21-Sep-17 09:21 35.044050 -113.466250 292 32209ft 422kts
21-Sep-17 09:22 35.102769 -113.592435 293 29441ft 435kts
21-Sep-17 09:23 35.163498 -113.722782 292 26445ft 448kts
21-Sep-17 09:24 35.224602 -113.855747 292 23578ft 440kts
21-Sep-17 09:25 35.300468 -113.970929 313 21018ft 440kts
21-Sep-17 09:26 35.395354 -114.059385 315 18573ft 425kts
21-Sep-17 09:27 35.477773 -114.136202 316 15441ft 411kts
21-Sep-17 09:28 35.564082 -114.216377 316 13778ft 357kts
21-Sep-17 09:29 35.637046 -114.284583 315 13056ft 307kts
21-Sep-17 09:30 35.703745 -114.347189 315 12067ft 303kts
21-Sep-17 09:31 35.777324 -114.400906 333 11884ft 327kts
21-Sep-17 09:32 35.862027 -114.439386 333 11175ft 317kts
21-Sep-17 09:33 35.944119 -114.477833 333 10615ft 318kts
21-Sep-17 09:34 36.003069 -114.546068 292 10153ft 293kts
21-Sep-17 09:35 36.041537 -114.635399 291 9272ft 294kts
21-Sep-17 09:36 36.068814 -114.729652 282 7954ft 293kts
21-Sep-17 09:37 36.077412 -114.827128 264 6550ft 286kts
21-Sep-17 09:38 36.076765 -114.921173 265 5174ft 275kts
21-Sep-17 09:39 36.076723 -115.010311 266 3872ft 242kts
21-Sep-17 09:40 36.074142 -115.087677 264 2736ft 209kts
21-Sep-17 09:41 36.073423 -115.146359 273 2189ft 83kts
21-Sep-17 09:42 36.074324 -115.154339 301 2189ft 0kts
21-Sep-17 09:43 36.076078 -115.156967 315 2189ft 18kts
21-Sep-17 09:44 36.077505 -115.158229 358 2189ft 0kts
21-Sep-17 09:45 36.078071 -115.155126 91 2189ft 24kts
21-Sep-17 09:46 36.077852 -115.148073 94 2189ft 16kts
21-Sep-17 09:47 36.077535 -115.141381 89 2189ft 22kts
21-Sep-17 09:48 36.078348 -115.135990 90 2189ft 13kts
21-Sep-17 09:49 36.079570 -115.136206 30 2189ft 4kts
21-Sep-17 09:50 36.079952 -115.135796 46 2189ft 0kts
21-Sep-17 09:51 36.079952 -115.135796 46 2189ft 0kts

Navigation Log

Ident Type
Flight plan parsing failed, navigation log unavailable